createdAt,value
2023-05-10T00:02:19.444Z,10.15
2023-05-10T00:04:48.460Z,9.05
2023-05-10T00:07:19.532Z,9.18
2023-05-10T00:09:48.494Z,8.13
2023-05-10T00:12:17.468Z,9.45
2023-05-10T00:14:46.535Z,8.80
2023-05-10T00:17:15.655Z,10.20
2023-05-10T00:19:44.823Z,10.68
2023-05-10T00:22:13.928Z,8.75
2023-05-10T00:24:43.165Z,9.85
2023-05-10T00:27:12.169Z,8.02
2023-05-10T00:29:41.168Z,9.27
2023-05-10T00:32:10.226Z,10.90
2023-05-10T00:34:42.252Z,11.90
2023-05-10T00:37:11.974Z,9.95
2023-05-10T00:39:40.943Z,7.88
2023-05-10T00:42:12.706Z,10.82
2023-05-10T00:44:44.697Z,9.32
2023-05-10T00:47:14.096Z,8.45
2023-05-10T00:49:43.984Z,9.43
2023-05-10T00:52:25.797Z,9.40
2023-05-10T00:54:58.199Z,8.48
2023-05-10T00:57:27.805Z,6.97
2023-05-10T00:59:56.877Z,26.98
2023-05-10T01:02:26.765Z,12.60
2023-05-10T01:04:56.461Z,13.35
2023-05-10T01:07:25.585Z,8.77
2023-05-10T01:09:54.674Z,9.25
2023-05-10T01:12:23.824Z,8.20
2023-05-10T01:14:52.811Z,8.60
2023-05-10T01:17:22.315Z,17.42
2023-05-10T01:19:51.931Z,9.98
2023-05-10T01:22:38.945Z,9.13
2023-05-10T01:25:38.625Z,6.63
2023-05-10T01:28:07.600Z,9.43
2023-05-10T01:31:11.781Z,12.45
2023-05-10T01:34:19.800Z,14.13
2023-05-10T01:37:05.318Z,15.57
2023-05-10T01:39:40.222Z,24.63
2023-05-10T01:42:25.803Z,44.97
2023-05-10T01:45:16.145Z,32.90
2023-05-10T01:47:54.701Z,17.70
2023-05-10T01:50:31.123Z,26.95
2023-05-10T01:53:02.142Z,34.33
2023-05-10T01:55:34.652Z,22.80
2023-05-10T01:58:12.375Z,14.38
2023-05-10T02:00:45.716Z,10.68
2023-05-10T02:03:16.685Z,23.88
2023-05-10T02:05:48.625Z,21.92
2023-05-10T02:08:20.411Z,29.70
2023-05-10T02:10:51.104Z,13.60
2023-05-10T02:13:22.082Z,19.95
2023-05-10T02:15:53.182Z,10.50
2023-05-10T02:18:24.440Z,8.70
2023-05-10T02:20:55.124Z,8.73
2023-05-10T02:23:26.016Z,11.00
2023-05-10T02:25:57.787Z,10.48
2023-05-10T02:28:28.581Z,8.55
2023-05-10T02:30:58.559Z,13.90
2023-05-10T02:33:28.995Z,14.00
2023-05-10T02:35:58.714Z,7.85
2023-05-10T02:38:29.712Z,8.60
2023-05-10T02:40:59.785Z,19.80
2023-05-10T02:43:31.483Z,19.40
2023-05-10T02:46:00.733Z,27.90
2023-05-10T02:48:30.199Z,7.22
2023-05-10T02:51:07.249Z,8.52
2023-05-10T02:53:40.472Z,8.90
2023-05-10T02:56:35.250Z,7.80
2023-05-10T02:59:04.593Z,9.70
2023-05-10T03:01:33.617Z,8.50
2023-05-10T03:04:03.128Z,6.65
2023-05-10T03:06:32.125Z,8.27
2023-05-10T03:09:01.298Z,9.05
2023-05-10T03:11:57.639Z,9.35
2023-05-10T03:15:03.682Z,6.63
2023-05-10T03:17:59.691Z,7.30
2023-05-10T03:20:59.137Z,9.30
2023-05-10T03:23:52.869Z,5.72
2023-05-10T03:26:29.198Z,6.07
2023-05-10T03:29:01.208Z,9.50
2023-05-10T03:31:30.555Z,9.45
2023-05-10T03:34:03.459Z,7.82
2023-05-10T03:36:32.518Z,9.30
2023-05-10T03:39:01.893Z,6.35
2023-05-10T03:41:31.589Z,7.88
2023-05-10T03:44:00.584Z,25.30
2023-05-10T03:46:29.603Z,20.20
2023-05-10T03:48:58.724Z,10.02
2023-05-10T03:51:30.352Z,8.38
2023-05-10T03:53:59.457Z,9.93
2023-05-10T03:56:28.419Z,11.77
2023-05-10T03:58:57.317Z,12.93
2023-05-10T04:01:26.382Z,6.90
2023-05-10T04:03:55.503Z,11.52
2023-05-10T04:06:24.634Z,7.95
2023-05-10T04:08:53.723Z,7.20
2023-05-10T04:11:24.158Z,25.35
2023-05-10T04:13:53.292Z,19.08
2023-05-10T04:16:22.649Z,7.40
2023-05-10T04:18:51.720Z,8.15
2023-05-10T04:21:20.757Z,8.13
2023-05-10T04:23:53.435Z,9.03
2023-05-10T04:26:22.790Z,13.85
2023-05-10T04:28:51.764Z,9.20
2023-05-10T04:31:23.959Z,14.38
2023-05-10T04:33:53.100Z,13.40
2023-05-10T04:36:22.155Z,15.45
2023-05-10T04:38:51.175Z,13.68
2023-05-10T04:41:20.220Z,11.55
2023-05-10T04:43:51.319Z,7.28
2023-05-10T04:46:20.371Z,10.48
2023-05-10T04:48:51.759Z,13.68
2023-05-10T04:51:20.797Z,9.20
2023-05-10T04:54:01.604Z,16.73
2023-05-10T04:56:34.032Z,14.15
2023-05-10T04:59:03.069Z,11.30
2023-05-10T05:01:32.304Z,14.43
2023-05-10T05:04:01.571Z,16.65
2023-05-10T05:06:30.740Z,13.98
2023-05-10T05:08:59.702Z,13.30
2023-05-10T05:11:29.776Z,10.30
2023-05-10T05:14:01.083Z,13.13
2023-05-10T05:16:32.785Z,13.55
2023-05-10T05:19:03.412Z,11.63
2023-05-10T05:21:34.320Z,16.50
2023-05-10T05:24:04.064Z,11.35
2023-05-10T05:26:33.139Z,18.27
2023-05-10T05:29:02.127Z,10.85
2023-05-10T05:31:31.864Z,9.73
2023-05-10T05:34:01.004Z,13.25
2023-05-10T05:36:30.019Z,8.20
2023-05-10T05:38:59.333Z,10.57
2023-05-10T05:41:28.724Z,15.35
2023-05-10T05:43:57.670Z,16.88
2023-05-10T05:46:26.652Z,18.83
2023-05-10T05:48:55.591Z,14.18
2023-05-10T05:51:24.626Z,19.92
2023-05-10T05:53:53.680Z,11.27
2023-05-10T05:56:26.401Z,13.70
2023-05-10T05:58:55.502Z,11.50
2023-05-10T06:01:24.516Z,11.30
2023-05-10T06:03:53.679Z,16.77
2023-05-10T06:06:22.834Z,12.55
2023-05-10T06:08:52.389Z,12.32
2023-05-10T06:11:23.062Z,14.98
2023-05-10T06:13:52.562Z,16.63
2023-05-10T06:16:27.243Z,16.95
2023-05-10T06:19:02.484Z,8.82
2023-05-10T06:21:35.748Z,9.88
2023-05-10T06:24:05.111Z,10.80
2023-05-10T06:26:34.223Z,8.80
2023-05-10T06:29:03.493Z,10.48
2023-05-10T06:31:32.747Z,9.70
2023-05-10T06:34:01.763Z,11.88
2023-05-10T06:36:30.784Z,17.63
2023-05-10T06:38:59.822Z,14.20
2023-05-10T06:41:28.794Z,9.68
2023-05-10T06:44:00.420Z,10.18
2023-05-10T06:46:29.519Z,9.88
2023-05-10T06:48:58.529Z,12.38
2023-05-10T06:51:28.261Z,16.33
2023-05-10T06:53:57.307Z,12.50
2023-05-10T06:56:26.310Z,12.10
2023-05-10T06:58:55.341Z,15.23
2023-05-10T07:01:24.634Z,11.85
2023-05-10T07:03:54.291Z,14.57
2023-05-10T07:06:32.972Z,21.40
2023-05-10T07:09:03.230Z,21.35
2023-05-10T07:11:32.253Z,12.73
2023-05-10T07:14:01.803Z,12.75
2023-05-10T07:16:31.189Z,9.90
2023-05-10T07:19:00.220Z,13.75
2023-05-10T07:21:30.764Z,12.10
2023-05-10T07:23:59.956Z,18.67
2023-05-10T07:26:29.058Z,10.80
2023-05-10T07:28:58.027Z,10.90
2023-05-10T07:31:27.101Z,9.10
2023-05-10T07:33:56.211Z,8.68
2023-05-10T07:36:25.144Z,13.30
2023-05-10T07:38:54.824Z,10.35
2023-05-10T07:41:24.665Z,13.88
2023-05-10T07:43:53.646Z,10.00
2023-05-10T07:46:22.828Z,10.90
2023-05-10T07:48:51.858Z,13.80
2023-05-10T07:51:20.884Z,9.05
2023-05-10T07:53:49.868Z,9.77
2023-05-10T07:56:27.095Z,13.15
2023-05-10T07:58:57.410Z,8.80
2023-05-10T08:01:26.777Z,12.60
2023-05-10T08:03:55.862Z,9.25
2023-05-10T08:06:24.902Z,9.93
2023-05-10T08:08:55.709Z,11.10
2023-05-10T08:11:25.013Z,9.65
2023-05-10T08:13:55.073Z,13.27
2023-05-10T08:16:24.209Z,11.48
2023-05-10T08:18:53.999Z,11.48
2023-05-10T08:21:23.208Z,14.63
2023-05-10T08:23:52.170Z,9.40
2023-05-10T08:26:21.232Z,12.35
2023-05-10T08:28:50.248Z,9.65
2023-05-10T08:31:20.212Z,12.43
2023-05-10T08:33:49.277Z,10.52
2023-05-10T08:36:23.573Z,8.35
2023-05-10T08:38:57.212Z,9.90
2023-05-10T08:41:30.623Z,11.32
2023-05-10T08:44:00.484Z,15.52
2023-05-10T08:46:31.066Z,9.02
2023-05-10T08:49:04.020Z,8.73
2023-05-10T08:51:38.120Z,9.57
2023-05-10T08:54:07.917Z,12.75
2023-05-10T08:56:36.897Z,9.82
2023-05-10T08:59:06.007Z,9.55
2023-05-10T09:01:38.112Z,9.13
2023-05-10T09:04:07.320Z,7.97
2023-05-10T09:06:37.122Z,7.63
2023-05-10T09:09:06.295Z,10.82
2023-05-10T09:11:35.516Z,10.75
2023-05-10T09:14:11.648Z,10.63
2023-05-10T09:16:41.148Z,14.63
2023-05-10T09:19:11.738Z,9.45
2023-05-10T09:21:41.129Z,11.15
2023-05-10T09:24:11.120Z,10.63
2023-05-10T09:26:52.022Z,11.32
2023-05-10T09:29:21.246Z,14.52
2023-05-10T09:32:07.062Z,15.02
2023-05-10T09:34:37.826Z,17.48
2023-05-10T09:37:06.961Z,15.15
2023-05-10T09:39:37.732Z,12.80
2023-05-10T09:42:17.061Z,11.20
2023-05-10T09:44:50.624Z,13.32
2023-05-10T09:47:22.643Z,12.43
2023-05-10T09:49:55.601Z,11.15
2023-05-10T09:52:24.603Z,18.25
2023-05-10T09:54:57.348Z,11.15
2023-05-10T09:57:28.182Z,11.17
2023-05-10T09:59:57.388Z,11.85
2023-05-10T10:02:31.799Z,12.65
2023-05-10T10:05:03.639Z,11.60
2023-05-10T10:07:33.947Z,12.75
2023-05-10T10:10:03.087Z,11.00
2023-05-10T10:12:32.108Z,18.42
2023-05-10T10:15:03.467Z,23.17
2023-05-10T10:17:34.104Z,30.83
2023-05-10T10:20:05.261Z,24.10
2023-05-10T10:22:34.242Z,22.45
2023-05-10T10:25:03.539Z,12.90
2023-05-10T10:27:56.600Z,14.75
2023-05-10T10:30:44.320Z,11.82
2023-05-10T10:33:31.688Z,9.13
2023-05-10T10:36:06.074Z,13.82
2023-05-10T10:38:50.277Z,13.95
2023-05-10T10:41:36.787Z,9.93
2023-05-10T10:44:35.805Z,12.45
2023-05-10T10:47:13.579Z,22.35
2023-05-10T10:49:48.674Z,9.52
2023-05-10T10:52:20.277Z,21.75
2023-05-10T10:55:20.381Z,9.30
2023-05-10T10:58:02.778Z,14.07
2023-05-10T11:00:35.785Z,21.05
2023-05-10T11:03:19.425Z,9.77
2023-05-10T11:05:54.156Z,10.48
2023-05-10T11:08:30.379Z,11.07
2023-05-10T11:11:02.120Z,11.63
2023-05-10T11:13:44.236Z,13.82
2023-05-10T11:16:19.278Z,12.27
2023-05-10T11:19:12.988Z,9.52
2023-05-10T11:22:07.614Z,14.80
2023-05-10T11:24:38.058Z,14.48
2023-05-10T11:27:07.992Z,12.40
2023-05-10T11:29:36.978Z,17.90
2023-05-10T11:32:10.315Z,16.13
2023-05-10T11:34:39.288Z,19.67
2023-05-10T11:37:08.266Z,20.25
2023-05-10T11:39:37.246Z,13.63
2023-05-10T11:42:06.562Z,20.88
2023-05-10T11:44:35.910Z,11.70
2023-05-10T11:47:05.325Z,17.65
2023-05-10T11:49:34.507Z,13.85
2023-05-10T11:52:15.558Z,17.40
2023-05-10T11:55:04.879Z,12.93
2023-05-10T11:57:34.149Z,13.18
2023-05-10T12:00:03.877Z,18.15
2023-05-10T12:02:33.043Z,9.85
2023-05-10T12:05:02.596Z,13.00
2023-05-10T12:07:31.644Z,15.05
2023-05-10T12:10:19.622Z,19.67
2023-05-10T12:12:50.330Z,12.43
2023-05-10T12:15:27.195Z,8.48
2023-05-10T12:17:56.906Z,14.70
2023-05-10T12:20:27.300Z,10.65
2023-05-10T12:22:59.746Z,14.50
2023-05-10T12:25:33.859Z,11.98
2023-05-10T12:28:06.163Z,11.73
2023-05-10T12:30:36.813Z,12.02
2023-05-10T12:33:12.111Z,19.08
2023-05-10T12:35:51.502Z,13.20
2023-05-10T12:38:40.427Z,11.80
2023-05-10T12:41:11.580Z,13.05
2023-05-10T12:43:41.137Z,14.88
2023-05-10T12:46:15.063Z,10.85
2023-05-10T12:51:19.280Z,12.52
2023-05-10T12:53:50.135Z,11.70
2023-05-10T12:56:19.294Z,12.68
2023-05-10T12:58:50.989Z,10.05
2023-05-10T13:01:20.300Z,9.63
2023-05-10T13:03:49.552Z,13.13
2023-05-10T13:06:18.500Z,9.80
2023-05-10T13:08:47.437Z,14.90
2023-05-10T13:11:19.078Z,12.55
2023-05-10T13:13:48.132Z,13.38
2023-05-10T13:16:17.159Z,9.02
2023-05-10T13:18:46.210Z,10.65
2023-05-10T13:21:15.230Z,13.38
2023-05-10T13:23:44.200Z,13.32
2023-05-10T13:26:13.207Z,9.25
2023-05-10T13:28:42.834Z,8.88
2023-05-10T13:31:11.857Z,9.05
2023-05-10T13:33:40.899Z,9.55
2023-05-10T13:36:10.148Z,15.43
2023-05-10T13:38:39.877Z,11.15
2023-05-10T13:41:09.185Z,11.10
2023-05-10T13:43:38.627Z,14.40
2023-05-10T13:46:07.869Z,13.65
2023-05-10T13:48:39.232Z,7.32
2023-05-10T13:51:08.301Z,9.80
2023-05-10T13:53:37.325Z,10.65
2023-05-10T13:56:06.412Z,10.13
2023-05-10T13:58:35.369Z,8.68
2023-05-10T14:01:04.398Z,10.18
2023-05-10T14:03:34.764Z,12.05
2023-05-10T14:06:04.029Z,9.13
2023-05-10T14:08:33.181Z,8.57
2023-05-10T14:11:02.172Z,9.02
2023-05-10T14:13:31.132Z,12.02
2023-05-10T14:16:02.640Z,7.63
2023-05-10T14:18:31.719Z,8.52
2023-05-10T14:21:00.698Z,14.38
2023-05-10T14:23:30.816Z,11.48
2023-05-10T14:25:59.958Z,9.90
2023-05-10T14:28:29.112Z,9.95
2023-05-10T14:30:58.117Z,13.50
2023-05-10T14:33:27.205Z,15.20
2023-05-10T14:35:59.141Z,11.85
2023-05-10T14:38:28.777Z,14.65
2023-05-10T14:40:57.850Z,11.75
2023-05-10T14:43:27.019Z,13.38
2023-05-10T14:45:56.286Z,16.73
2023-05-10T14:48:25.521Z,12.23
2023-05-10T14:50:54.824Z,13.25
2023-05-10T14:53:23.873Z,16.08
2023-05-10T14:55:52.949Z,11.95
2023-05-10T14:58:21.945Z,11.45
2023-05-10T15:00:51.200Z,10.40
2023-05-10T15:03:20.922Z,9.27
2023-05-10T15:05:50.659Z,8.18
2023-05-10T15:08:19.624Z,14.60
2023-05-10T15:10:49.109Z,11.90
2023-05-10T15:13:18.116Z,17.45
2023-05-10T15:15:47.128Z,10.85
2023-05-10T15:18:16.276Z,12.02
2023-05-10T15:20:45.366Z,12.63
2023-05-10T15:23:14.693Z,11.25
2023-05-10T15:25:43.711Z,13.45
2023-05-10T15:28:12.678Z,10.55
2023-05-10T15:30:41.700Z,13.32
2023-05-10T15:33:10.799Z,12.57
2023-05-10T15:35:41.701Z,18.95
2023-05-10T15:38:11.517Z,18.45
2023-05-10T15:40:40.595Z,8.82
2023-05-10T15:43:09.819Z,12.77
2023-05-10T15:45:38.829Z,13.50
2023-05-10T15:48:08.076Z,12.70
2023-05-10T15:50:37.083Z,13.05
2023-05-10T15:53:06.324Z,9.13
2023-05-10T15:55:36.526Z,16.17
2023-05-10T15:58:05.574Z,10.73
2023-05-10T16:00:34.643Z,10.07
2023-05-10T16:03:03.828Z,12.60
2023-05-10T16:05:34.986Z,11.85
2023-05-10T16:08:04.271Z,10.50
2023-05-10T16:10:36.398Z,11.68
2023-05-10T16:13:05.754Z,13.15
2023-05-10T16:15:35.140Z,14.35
2023-05-10T16:18:04.168Z,6.93
2023-05-10T16:20:34.622Z,12.25
2023-05-10T16:23:08.394Z,7.65
2023-05-10T16:25:37.836Z,10.00
2023-05-10T16:28:06.943Z,8.90
2023-05-10T16:30:36.105Z,8.90
2023-05-10T16:33:05.368Z,7.30
2023-05-10T16:35:34.367Z,10.77
2023-05-10T16:38:03.422Z,7.25
2023-05-10T16:40:32.611Z,8.23
2023-05-10T16:43:01.529Z,6.47
2023-05-10T16:45:33.957Z,8.23
2023-05-10T16:48:02.977Z,9.25
2023-05-10T16:50:32.091Z,10.88
2023-05-10T16:53:01.384Z,9.60
2023-05-10T16:55:30.336Z,4.05
2023-05-10T16:58:01.683Z,4.03
2023-05-10T17:00:31.046Z,2.92
2023-05-10T17:03:00.130Z,5.05
2023-05-10T17:05:29.273Z,2.63
2023-05-10T17:07:58.292Z,5.18
2023-05-10T17:10:27.422Z,2.60
2023-05-10T17:12:56.593Z,4.90
2023-05-10T17:15:25.646Z,4.55
2023-05-10T17:17:54.776Z,5.10
2023-05-10T17:20:23.873Z,3.22
2023-05-10T17:22:53.277Z,2.30
2023-05-10T17:25:22.285Z,4.78
2023-05-10T17:27:51.209Z,3.13
2023-05-10T17:30:25.524Z,3.85
2023-05-10T17:32:57.824Z,4.35
2023-05-10T17:35:27.252Z,5.05
2023-05-10T17:37:56.468Z,3.35
2023-05-10T17:40:25.475Z,4.30
2023-05-10T17:42:54.483Z,4.18
2023-05-10T17:45:23.550Z,5.05
2023-05-10T17:47:52.578Z,4.43
2023-05-10T17:50:21.758Z,3.92
2023-05-10T17:52:50.776Z,6.50
2023-05-10T17:55:19.988Z,4.05
2023-05-10T17:57:51.121Z,5.13
2023-05-10T18:00:20.994Z,7.55
2023-05-10T18:02:50.092Z,4.88
2023-05-10T18:05:19.590Z,5.70
2023-05-10T18:07:48.874Z,7.40
2023-05-10T18:10:17.958Z,7.35
2023-05-10T18:12:47.054Z,8.93
2023-05-10T18:15:16.310Z,7.88
2023-05-10T18:17:45.773Z,7.20
2023-05-10T18:20:14.832Z,7.28
2023-05-10T18:22:44.591Z,6.13
2023-05-10T18:25:13.628Z,7.68
2023-05-10T18:27:42.651Z,6.75
2023-05-10T18:30:13.838Z,6.53
2023-05-10T18:32:43.042Z,6.57
2023-05-10T18:35:13.032Z,7.38
2023-05-10T18:37:42.454Z,7.53
2023-05-10T18:40:13.699Z,6.88
2023-05-10T18:42:43.238Z,7.25
2023-05-10T18:45:12.864Z,7.13
2023-05-10T18:47:41.984Z,6.35
2023-05-10T18:50:11.466Z,6.30
2023-05-10T18:52:40.713Z,5.13
2023-05-10T18:55:10.419Z,5.32
2023-05-10T18:57:42.590Z,6.18
2023-05-10T19:00:13.744Z,4.85
2023-05-10T19:02:42.877Z,5.78
2023-05-10T19:05:12.094Z,6.88
2023-05-10T19:07:44.580Z,5.47
2023-05-10T19:10:14.854Z,6.22
2023-05-10T19:12:43.877Z,4.88
2023-05-10T19:15:13.178Z,5.65
2023-05-10T19:17:44.971Z,7.13
2023-05-10T19:20:16.956Z,7.20
2023-05-10T19:23:02.256Z,7.10
2023-05-10T19:25:36.428Z,6.57
2023-05-10T19:28:05.326Z,10.77
2023-05-10T19:30:34.250Z,8.02
2023-05-10T19:33:06.798Z,7.20
2023-05-10T19:35:37.192Z,7.63
2023-05-10T19:38:06.247Z,8.98
2023-05-10T19:40:35.221Z,7.88
2023-05-10T19:43:04.959Z,8.48
2023-05-10T19:45:38.751Z,7.13
2023-05-10T19:48:08.141Z,6.47
2023-05-10T19:50:37.316Z,10.07
2023-05-10T19:53:06.240Z,11.02
2023-05-10T19:55:36.772Z,8.73
2023-05-10T19:58:07.108Z,8.55
2023-05-10T20:00:36.692Z,8.10
2023-05-10T20:03:09.127Z,8.38
2023-05-10T20:05:38.359Z,7.38
2023-05-10T20:08:07.326Z,7.20
2023-05-10T20:10:36.331Z,8.27
2023-05-10T20:13:05.517Z,7.10
2023-05-10T20:15:34.711Z,6.82
2023-05-10T20:18:04.820Z,8.13
2023-05-10T20:20:33.983Z,7.32
2023-05-10T20:23:02.997Z,6.75
2023-05-10T20:25:32.115Z,9.90
2023-05-10T20:28:01.132Z,10.80
2023-05-10T20:30:30.132Z,7.57
2023-05-10T20:32:59.189Z,7.80
2023-05-10T20:35:28.300Z,8.13
2023-05-10T20:37:57.289Z,8.93
2023-05-10T20:40:26.322Z,7.75
2023-05-10T20:42:55.365Z,6.75
2023-05-10T20:45:24.590Z,9.85
2023-05-10T20:47:54.177Z,8.95
2023-05-10T20:50:23.325Z,9.50
2023-05-10T20:52:53.646Z,9.32
2023-05-10T20:55:23.026Z,7.72
2023-05-10T20:57:52.675Z,9.38
2023-05-10T21:00:22.234Z,7.03
2023-05-10T21:02:51.492Z,6.13
2023-05-10T21:05:20.598Z,7.55
2023-05-10T21:07:50.600Z,8.25
2023-05-10T21:10:20.018Z,9.90
2023-05-10T21:12:49.291Z,7.15
2023-05-10T21:15:18.839Z,7.97
2023-05-10T21:17:47.847Z,9.80
2023-05-10T21:20:17.226Z,11.63
2023-05-10T21:22:46.418Z,8.77
2023-05-10T21:25:15.602Z,10.48
2023-05-10T21:27:44.655Z,9.95
2023-05-10T21:30:13.883Z,8.23
2023-05-10T21:32:42.981Z,7.63
2023-05-10T21:35:12.046Z,7.65
2023-05-10T21:37:41.086Z,11.10
2023-05-10T21:40:10.601Z,7.07
2023-05-10T21:42:39.587Z,9.77
2023-05-10T21:45:09.033Z,8.20
2023-05-10T21:47:38.377Z,9.05
2023-05-10T21:50:07.900Z,10.40
2023-05-10T21:52:37.074Z,11.63
2023-05-10T21:55:06.757Z,8.77
2023-05-10T21:57:38.466Z,9.77
2023-05-10T22:00:08.150Z,8.60
2023-05-10T22:02:37.314Z,10.10
2023-05-10T22:05:06.577Z,9.15
2023-05-10T22:07:35.659Z,7.57
2023-05-10T22:10:05.046Z,11.60
2023-05-10T22:12:34.002Z,6.55
2023-05-10T22:17:34.946Z,11.57
2023-05-10T22:20:04.038Z,8.15
2023-05-10T22:22:32.984Z,8.20
2023-05-10T22:25:02.510Z,8.77
2023-05-10T22:27:31.536Z,9.50
2023-05-10T22:30:00.543Z,9.55
2023-05-10T22:32:29.561Z,8.27
2023-05-10T22:34:58.593Z,11.98
2023-05-10T22:37:28.002Z,7.82
2023-05-10T22:39:56.994Z,9.43
2023-05-10T22:42:25.965Z,7.55
2023-05-10T22:44:55.077Z,6.95
2023-05-10T22:47:24.040Z,8.57
2023-05-10T22:49:53.636Z,7.78
2023-05-10T22:52:22.644Z,6.13
2023-05-10T22:54:51.932Z,8.88
2023-05-10T22:57:20.891Z,6.80
2023-05-10T22:59:50.089Z,6.25
2023-05-10T23:02:19.172Z,7.43
2023-05-10T23:04:48.731Z,6.88
2023-05-10T23:07:17.842Z,7.82
2023-05-10T23:09:47.221Z,12.30
2023-05-10T23:12:16.267Z,8.05
2023-05-10T23:14:47.489Z,9.00
2023-05-10T23:17:16.495Z,9.23
2023-05-10T23:19:45.457Z,8.30
2023-05-10T23:22:14.971Z,9.00
2023-05-10T23:24:43.998Z,8.85
2023-05-10T23:27:13.013Z,7.75
2023-05-10T23:29:42.136Z,9.32
2023-05-10T23:32:11.239Z,6.15
2023-05-10T23:34:40.268Z,7.82
2023-05-10T23:37:09.261Z,8.80
2023-05-10T23:39:38.276Z,10.00
2023-05-10T23:42:07.576Z,8.32
2023-05-10T23:44:36.717Z,8.00
2023-05-10T23:47:05.692Z,7.25
2023-05-10T23:49:34.773Z,7.38
2023-05-10T23:52:03.719Z,9.93
2023-05-10T23:54:32.703Z,7.05
2023-05-10T23:57:02.174Z,7.07
2023-05-10T23:59:31.251Z,7.60
